Time;durP1;ratioP1;P1;durP2;ratioP2;P2;SDS_P1;SDS_P2;PMS_P1;PMS_P2;Temp;Humidity;BMP_temperature;BMP_pressure;BME280_temperature;BME280_humidity;BME280_pressure;Samples;Min_cycle;Max_cycle;Signal;HPM_P1;HPM_P2
2023/04/27 00:01:29;;;;;;;5.35;2.90;;;13.20;75.50;;;;;;4190517;28;20122;-67
2023/04/27 00:04:13;;;;;;;5.63;2.97;;;13.20;75.80;;;;;;4195227;28;20051;-67
2023/04/27 00:06:55;;;;;;;4.78;2.90;;;13.20;75.80;;;;;;4179413;28;20068;-66
2023/04/27 00:09:36;;;;;;;5.45;2.95;;;13.20;75.60;;;;;;4179127;28;20048;-61
2023/04/27 00:12:16;;;;;;;3.95;3.08;;;13.20;75.70;;;;;;4179058;28;20566;-61
2023/04/27 00:14:58;;;;;;;5.32;3.05;;;13.20;75.60;;;;;;4177952;28;20589;-62
2023/04/27 00:17:38;;;;;;;5.83;3.83;;;13.20;76.60;;;;;;4180086;28;20056;-62
2023/04/27 00:20:19;;;;;;;5.63;3.65;;;13.20;76.80;;;;;;4195499;28;20051;-62
2023/04/27 00:23:02;;;;;;;5.72;3.47;;;13.10;75.90;;;;;;4195646;28;20154;-65
2023/04/27 00:25:42;;;;;;;4.88;3.30;;;13.10;75.90;;;;;;4193930;28;20055;-65
2023/04/27 00:28:23;;;;;;;6.32;4.05;;;13.10;75.90;;;;;;4178535;28;20051;-62
2023/04/27 00:31:04;;;;;;;4.17;3.77;;;13.10;76.00;;;;;;4178655;28;20395;-62
2023/04/27 00:33:45;;;;;;;3.67;3.42;;;13.10;77.00;;;;;;4178891;28;20418;-65
2023/04/27 00:36:29;;;;;;;4.03;3.63;;;13.10;76.10;;;;;;4178304;28;20052;-63
2023/04/27 00:39:11;;;;;;;4.70;3.60;;;13.10;76.00;;;;;;4178260;28;20115;-62
2023/04/27 00:41:52;;;;;;;9.30;3.75;;;13.10;76.20;;;;;;4178309;28;20195;-62
2023/04/27 00:44:33;;;;;;;4.45;3.63;;;13.10;76.20;;;;;;4165744;28;20856;-62
2023/04/27 00:47:16;;;;;;;5.93;3.70;;;13.10;76.10;;;;;;4178652;28;20063;-63
2023/04/27 00:49:58;;;;;;;6.28;4.13;;;13.10;76.10;;;;;;4178023;28;20130;-62
2023/04/27 00:52:39;;;;;;;4.60;3.78;;;13.00;76.10;;;;;;4192779;28;20109;-62
2023/04/27 00:55:23;;;;;;;5.47;3.45;;;13.00;76.10;;;;;;4178270;28;20179;-62
2023/04/27 00:58:03;;;;;;;4.30;3.63;;;13.00;75.80;;;;;;4178345;28;20412;-62
2023/04/27 01:00:44;;;;;;;6.72;3.10;;;13.00;76.10;;;;;;4191968;28;20059;-62
2023/04/27 01:03:30;;;;;;;4.13;3.40;;;13.00;76.20;;;;;;4178305;28;20056;-62
2023/04/27 01:06:10;;;;;;;4.72;3.13;;;13.00;76.30;;;;;;4176961;28;20079;-62
2023/04/27 01:08:52;;;;;;;3.38;2.85;;;13.00;76.20;;;;;;4178437;28;20404;-61
2023/04/27 01:11:35;;;;;;;4.35;2.90;;;13.00;76.40;;;;;;4177297;28;20044;-62
2023/04/27 01:14:16;;;;;;;2.63;2.42;;;13.00;77.30;;;;;;4178099;28;20175;-61
2023/04/27 01:16:57;;;;;;;;;;;13.00;76.30;;;;;;4166101;28;20052;-62
2023/04/27 01:19:39;;;;;;;3.72;2.83;;;13.00;76.40;;;;;;4191660;28;19947;-62
2023/04/27 01:22:20;;;;;;;5.38;3.20;;;13.00;77.40;;;;;;4194635;28;20048;-62
2023/04/27 01:25:02;;;;;;;2.53;2.30;;;12.90;77.00;;;;;;4185249;28;20183;-62
2023/04/27 01:27:44;;;;;;;3.53;2.30;;;12.90;76.90;;;;;;4190278;28;20059;-62
2023/04/27 01:30:27;;;;;;;4.60;3.03;;;12.90;76.90;;;;;;4194443;28;20060;-62
2023/04/27 01:33:08;;;;;;;4.70;2.42;;;12.90;77.60;;;;;;4193198;28;20190;-62
2023/04/27 01:35:52;;;;;;;3.85;2.28;;;12.90;76.80;;;;;;4193853;28;20162;-62
2023/04/27 01:38:33;;;;;;;2.10;2.00;;;12.90;76.70;;;;;;4192342;28;20063;-62
2023/04/27 01:41:16;;;;;;;2.60;2.40;;;12.90;76.60;;;;;;4181520;28;20297;-62
2023/04/27 01:43:57;;;;;;;2.50;2.30;;;12.90;76.60;;;;;;4193957;28;20143;-62
2023/04/27 01:46:38;;;;;;;2.67;2.42;;;12.90;76.70;;;;;;4192432;28;20134;-62
2023/04/27 01:49:20;;;;;;;2.58;2.38;;;12.90;76.60;;;;;;4192700;28;20129;-62
2023/04/27 01:52:02;;;;;;;2.03;1.92;;;12.90;76.70;;;;;;4192970;28;20170;-62
2023/04/27 01:54:43;;;;;;;2.10;2.00;;;12.90;76.60;;;;;;4193408;28;20047;-62
2023/04/27 01:57:25;;;;;;;6.47;2.50;;;12.90;76.80;;;;;;4192887;28;20447;-65
2023/04/27 02:00:09;;;;;;;2.40;2.20;;;12.90;76.80;;;;;;4191009;28;20086;-62
2023/04/27 02:03:02;;;;;;;3.50;2.30;;;12.90;76.80;;;;;;4177054;28;20070;-62
2023/04/27 02:05:43;;;;;;;2.75;2.10;;;12.90;77.50;;;;;;4177867;28;20195;-62
2023/04/27 02:08:25;;;;;;;3.17;1.92;;;12.80;76.10;;;;;;4192848;28;20438;-61
2023/04/27 02:11:06;;;;;;;2.45;2.10;;;12.80;74.70;;;;;;4192923;28;20059;-62
2023/04/27 02:13:48;;;;;;;3.28;2.08;;;12.80;75.00;;;;;;4192518;28;20052;-61
2023/04/27 02:16:29;;;;;;;2.20;2.00;;;12.80;75.90;;;;;;4192707;28;20051;-62
2023/04/27 02:19:10;;;;;;;3.45;2.20;;;12.80;76.40;;;;;;4192698;28;20125;-62
2023/04/27 02:21:52;;;;;;;4.18;2.53;;;12.80;76.50;;;;;;4165083;28;20048;-62
2023/04/27 02:24:32;;;;;;;2.40;1.95;;;12.80;76.70;;;;;;4193744;28;20495;-62
2023/04/27 02:27:13;;;;;;;3.33;2.50;;;12.80;75.90;;;;;;4191275;28;20063;-62
2023/04/27 02:29:56;;;;;;;4.35;2.30;;;12.80;76.00;;;;;;4193382;28;20298;-63
2023/04/27 02:32:36;;;;;;;3.10;2.72;;;12.80;76.10;;;;;;4175478;28;20408;-63
2023/04/27 02:35:17;;;;;;;4.65;2.33;;;12.80;77.40;;;;;;4169155;28;20122;-63
2023/04/27 02:37:58;;;;;;;4.33;2.23;;;12.80;76.80;;;;;;4175688;28;20138;-62
2023/04/27 02:40:39;;;;;;;3.43;2.30;;;12.80;76.90;;;;;;4176178;28;20461;-62
2023/04/27 02:43:20;;;;;;;2.47;2.03;;;12.80;77.80;;;;;;4177278;28;20788;-62
2023/04/27 02:46:04;;;;;;;2.33;2.13;;;12.70;76.80;;;;;;4188685;28;20098;-62
2023/04/27 02:48:45;;;;;;;3.03;2.72;;;12.80;77.00;;;;;;4191545;28;20122;-62
2023/04/27 02:51:25;;;;;;;2.78;2.22;;;12.70;77.10;;;;;;4193214;28;20141;-62
2023/04/27 02:54:07;;;;;;;5.57;2.20;;;12.70;77.10;;;;;;4192028;28;20102;-62
2023/04/27 02:56:47;;;;;;;3.50;2.45;;;12.70;77.10;;;;;;4193232;28;20051;-62
2023/04/27 02:59:28;;;;;;;6.13;2.33;;;12.70;77.30;;;;;;4192721;28;20560;-62
2023/04/27 03:02:10;;;;;;;1.98;1.88;;;12.70;77.20;;;;;;4192489;28;20055;-62
2023/04/27 03:04:53;;;;;;;6.20;2.72;;;12.70;77.30;;;;;;4192924;28;20054;-62
2023/04/27 03:07:34;;;;;;;2.38;2.00;;;12.70;77.30;;;;;;4192612;28;20544;-62
2023/04/27 03:10:17;;;;;;;5.20;2.95;;;12.70;77.30;;;;;;4191401;28;20059;-62
2023/04/27 03:12:57;;;;;;;3.67;3.37;;;12.70;77.30;;;;;;4191382;28;20051;-62
2023/04/27 03:15:38;;;;;;;3.08;2.80;;;12.70;77.30;;;;;;4191378;28;20364;-66
2023/04/27 03:18:20;;;;;;;2.90;2.50;;;12.70;77.40;;;;;;4177582;28;20044;-66
2023/04/27 03:21:06;;;;;;;2.72;2.53;;;12.70;77.20;;;;;;4191594;28;20059;-66
2023/04/27 03:23:47;;;;;;;2.55;2.38;;;12.60;77.00;;;;;;4192825;28;20055;-66
2023/04/27 03:26:28;;;;;;;;;;;12.70;77.20;;;;;;4193248;28;20067;-66
2023/04/27 03:29:10;;;;;;;;;;;12.70;77.30;;;;;;4191718;28;20299;-65
2023/04/27 03:31:51;;;;;;;3.65;2.80;;;12.70;78.50;;;;;;4191369;28;19927;-66
2023/04/27 03:34:34;;;;;;;2.90;2.70;;;12.60;79.70;;;;;;4174592;28;20557;-66
2023/04/27 03:37:15;;;;;;;3.38;3.17;;;12.60;78.60;;;;;;4175947;28;20044;-66
2023/04/27 03:39:56;;;;;;;2.80;2.70;;;12.60;78.30;;;;;;4176017;28;20179;-65
2023/04/27 03:42:37;;;;;;;4.35;3.13;;;12.60;79.00;;;;;;4174647;28;20094;-66
2023/04/27 03:45:18;;;;;;;3.67;2.75;;;12.60;78.10;;;;;;4191479;28;20134;-66
2023/04/27 03:47:59;;;;;;;3.65;2.97;;;12.60;78.20;;;;;;4192436;28;20415;-66
2023/04/27 03:50:42;;;;;;;3.20;2.90;;;12.60;78.10;;;;;;4174658;28;20147;-65
2023/04/27 03:53:22;;;;;;;3.00;2.80;;;12.60;78.00;;;;;;4176039;28;20381;-61
2023/04/27 03:56:04;;;;;;;2.67;2.40;;;12.60;78.30;;;;;;4174909;28;20052;-61
2023/04/27 03:58:45;;;;;;;2.90;2.60;;;12.60;78.20;;;;;;4183883;28;20094;-61
2023/04/27 04:01:35;;;;;;;3.45;3.15;;;12.60;78.10;;;;;;4191384;28;20186;-61
2023/04/27 04:04:15;;;;;;;3.10;2.70;;;12.60;78.10;;;;;;4191463;28;20056;-61
2023/04/27 04:06:57;;;;;;;2.72;2.60;;;12.60;78.00;;;;;;4189754;28;20079;-65
2023/04/27 04:09:38;;;;;;;3.30;3.03;;;12.50;77.90;;;;;;4192152;28;20059;-64
2023/04/27 04:12:19;;;;;;;3.27;3.07;;;12.60;78.00;;;;;;4190669;28;20055;-61
2023/04/27 04:15:00;;;;;;;2.85;2.65;;;12.50;78.80;;;;;;4191619;28;20048;-61
2023/04/27 04:17:42;;;;;;;3.97;2.90;;;12.50;77.90;;;;;;4190750;28;20400;-62
2023/04/27 04:20:23;;;;;;;3.40;3.20;;;12.50;77.90;;;;;;4192026;28;20047;-61
2023/04/27 04:23:06;;;;;;;3.78;3.45;;;12.50;78.00;;;;;;4179741;28;20052;-61
2023/04/27 04:25:47;;;;;;;5.00;3.00;;;12.50;77.80;;;;;;4174186;28;20164;-61
2023/04/27 04:28:28;;;;;;;3.10;2.90;;;12.50;77.70;;;;;;4175278;28;20099;-61
2023/04/27 04:31:09;;;;;;;5.78;3.50;;;12.50;77.60;;;;;;4183666;28;20059;-60
2023/04/27 04:33:50;;;;;;;3.33;3.03;;;12.50;78.60;;;;;;4190771;28;20514;-61
2023/04/27 04:36:32;;;;;;;6.63;3.92;;;12.60;78.00;;;;;;4189408;28;20438;-60
2023/04/27 04:39:15;;;;;;;5.93;3.30;;;12.60;77.90;;;;;;4190890;28;20059;-60
2023/04/27 04:41:56;;;;;;;3.72;3.35;;;12.60;77.70;;;;;;4187245;28;20194;-60
2023/04/27 04:44:40;;;;;;;3.08;2.88;;;12.50;77.60;;;;;;4174017;28;20056;-60
2023/04/27 04:47:21;;;;;;;4.68;4.07;;;12.50;77.40;;;;;;4173856;28;20102;-60
2023/04/27 04:50:02;;;;;;;4.03;3.45;;;12.60;78.40;;;;;;4179304;28;20047;-60
2023/04/27 04:52:45;;;;;;;5.03;4.15;;;12.50;78.40;;;;;;4193247;28;20629;-62
2023/04/27 04:55:28;;;;;;;6.40;4.23;;;12.50;77.50;;;;;;4194003;28;20064;-66
2023/04/27 04:58:09;;;;;;;6.63;3.70;;;12.50;77.30;;;;;;4193542;28;20152;-65
2023/04/27 05:00:49;;;;;;;5.15;4.70;;;12.50;77.30;;;;;;4193380;28;20109;-65
2023/04/27 05:03:30;;;;;;;9.45;4.78;;;12.50;77.20;;;;;;4177234;28;20061;-65
2023/04/27 05:06:11;;;;;;;5.60;4.60;;;12.50;77.10;;;;;;4178240;28;20130;-65
2023/04/27 05:08:52;;;;;;;5.97;4.18;;;12.50;77.10;;;;;;4177877;28;20363;-64
2023/04/27 05:11:34;;;;;;;5.72;4.60;;;12.40;77.10;;;;;;4192990;28;20048;-64
2023/04/27 05:14:15;;;;;;;7.35;4.38;;;12.50;77.00;;;;;;4176998;28;20056;-65
2023/04/27 05:16:56;;;;;;;6.55;4.72;;;12.50;77.00;;;;;;4193556;28;20052;-64
2023/04/27 05:19:37;;;;;;;5.53;4.95;;;12.50;77.00;;;;;;4196298;28;20186;-65
2023/04/27 05:22:17;;;;;;;11.00;5.55;;;12.50;77.00;;;;;;4194930;28;20056;-65
2023/04/27 05:24:59;;;;;;;6.90;5.07;;;12.50;77.00;;;;;;4189652;28;20174;-65
2023/04/27 05:27:41;;;;;;;7.43;5.33;;;12.60;76.20;;;;;;4193981;28;20055;-64
2023/04/27 05:30:22;;;;;;;7.97;5.15;;;12.60;76.60;;;;;;4186507;28;20524;-64
2023/04/27 05:33:03;;;;;;;9.27;5.13;;;12.60;76.30;;;;;;4180195;28;20052;-65
2023/04/27 05:35:44;;;;;;;7.47;5.38;;;12.60;76.30;;;;;;4192857;28;20513;-66
2023/04/27 05:38:25;;;;;;;5.75;5.22;;;12.70;76.10;;;;;;4193654;28;20194;-65
2023/04/27 05:41:06;;;;;;;4.32;3.95;;;12.70;75.90;;;;;;4193830;28;20051;-67
2023/04/27 05:43:48;;;;;;;7.10;4.63;;;12.70;76.00;;;;;;4194043;28;20055;-64
2023/04/27 05:46:29;;;;;;;5.35;4.22;;;12.70;76.10;;;;;;4193673;28;20095;-66
2023/04/27 05:49:10;;;;;;;4.80;4.40;;;12.80;75.90;;;;;;4192200;28;20064;-64
2023/04/27 05:51:52;;;;;;;4.93;4.40;;;12.80;75.60;;;;;;4194262;28;20058;-67
2023/04/27 05:54:33;;;;;;;4.97;4.30;;;12.80;75.30;;;;;;4194131;28;20290;-65
2023/04/27 05:57:14;;;;;;;4.60;4.20;;;12.80;75.20;;;;;;4193698;28;20384;-65
2023/04/27 05:59:57;;;;;;;4.55;4.10;;;12.90;75.30;;;;;;4192463;28;20056;-65
2023/04/27 06:02:38;;;;;;;4.45;4.05;;;12.90;75.30;;;;;;4193976;28;20125;-64
2023/04/27 06:05:20;;;;;;;6.03;4.35;;;12.90;75.20;;;;;;4191090;28;20170;-65
2023/04/27 06:08:00;;;;;;;4.60;3.95;;;13.00;75.50;;;;;;4192518;28;20105;-67
2023/04/27 06:10:41;;;;;;;5.67;4.03;;;13.00;75.40;;;;;;4193658;28;20050;-64
2023/04/27 06:13:22;;;;;;;5.03;4.05;;;13.00;75.60;;;;;;4193832;28;20297;-64
2023/04/27 06:16:05;;;;;;;5.35;3.47;;;13.00;76.20;;;;;;4193506;28;20514;-65
2023/04/27 06:18:46;;;;;;;8.68;4.10;;;13.00;75.90;;;;;;4192676;28;20182;-66
2023/04/27 06:21:27;;;;;;;5.83;4.13;;;13.00;77.20;;;;;;4193624;28;20063;-65
2023/04/27 06:24:08;;;;;;;7.25;3.80;;;13.00;76.90;;;;;;4192688;28;20285;-65
2023/04/27 06:26:50;;;;;;;7.60;3.88;;;13.00;76.80;;;;;;4191855;28;20140;-68
2023/04/27 06:29:31;;;;;;;6.25;3.72;;;13.00;77.50;;;;;;4193396;28;20149;-65
2023/04/27 06:32:13;;;;;;;7.63;3.75;;;13.10;78.20;;;;;;4193129;28;20051;-65
2023/04/27 06:34:54;;;;;;;6.07;4.32;;;13.10;79.10;;;;;;4184107;28;20068;-65
2023/04/27 06:37:35;;;;;;;7.45;4.00;;;13.10;79.00;;;;;;4177175;28;20075;-65
2023/04/27 06:40:16;;;;;;;5.13;3.65;;;13.20;78.80;;;;;;4192083;28;20048;-65
2023/04/27 06:42:56;;;;;;;4.47;3.50;;;13.20;78.40;;;;;;4193046;28;20410;-65
2023/04/27 06:45:37;;;;;;;5.65;4.05;;;13.20;77.90;;;;;;4192571;28;20052;-65
2023/04/27 06:48:20;;;;;;;8.15;3.42;;;13.20;77.30;;;;;;4182882;28;20051;-65
2023/04/27 06:51:00;;;;;;;4.47;3.10;;;13.30;76.80;;;;;;4182972;28;20438;-65
2023/04/27 06:53:41;;;;;;;3.43;3.00;;;13.20;76.00;;;;;;4190059;28;20414;-64
2023/04/27 06:56:22;;;;;;;3.28;2.75;;;13.20;75.50;;;;;;4186455;28;20499;-64
2023/04/27 06:59:03;;;;;;;6.47;2.85;;;13.30;75.50;;;;;;4193122;28;20043;-64
2023/04/27 07:01:44;;;;;;;6.22;2.75;;;13.30;75.20;;;;;;4191632;28;20055;-64
2023/04/27 07:04:26;;;;;;;5.30;2.80;;;13.30;74.90;;;;;;4175351;28;20048;-65
2023/04/27 07:07:07;;;;;;;2.95;2.70;;;13.40;74.10;;;;;;4182004;28;20070;-64
2023/04/27 07:09:48;;;;;;;8.57;2.60;;;13.40;73.60;;;;;;4176473;28;20056;-65
2023/04/27 07:12:29;;;;;;;3.17;2.17;;;13.40;73.10;;;;;;4191389;28;20125;-64
2023/04/27 07:15:10;;;;;;;3.58;2.38;;;13.50;72.70;;;;;;4192751;28;20047;-63
2023/04/27 07:17:52;;;;;;;3.13;2.22;;;13.50;72.50;;;;;;4187824;28;20060;-65
2023/04/27 07:20:37;;;;;;;2.83;1.63;;;13.60;72.00;;;;;;4176128;28;20582;-65
2023/04/27 07:23:17;;;;;;;5.90;2.10;;;13.60;71.20;;;;;;4175951;28;20515;-64
2023/04/27 07:25:58;;;;;;;2.47;2.20;;;13.60;70.70;;;;;;4176007;28;20400;-66
2023/04/27 07:28:39;;;;;;;3.20;2.17;;;13.60;69.90;;;;;;4176287;28;20294;-64
2023/04/27 07:31:20;;;;;;;2.90;2.13;;;13.70;69.50;;;;;;4191420;28;20052;-66
2023/04/27 07:34:01;;;;;;;2.15;2.00;;;13.70;69.00;;;;;;4175887;28;20047;-64
2023/04/27 07:36:45;;;;;;;4.60;2.55;;;13.70;68.70;;;;;;4175493;28;20060;-65
2023/04/27 08:08:42;;;;;;;5.45;2.85;;;14.10;68.70;;;;;;4853123;23;21412;-58
2023/04/27 08:14:17;;;;;;;4.43;1.92;;;14.10;67.40;;;;;;4192989;23;20106;-60
2023/04/27 08:29:16;;;;;;;4.53;2.60;;;14.20;66.20;;;;;;4630378;23;20036;-61
2023/04/27 08:32:12;;;;;;;4.15;2.30;;;14.20;65.60;;;;;;3980655;29;20170;-66
2023/04/27 08:34:53;;;;;;;4.45;3.13;;;14.20;65.60;;;;;;3976485;29;20172;-66
2023/04/27 08:37:37;;;;;;;4.03;3.13;;;14.20;65.30;;;;;;3977174;29;20176;-49
2023/04/27 08:40:19;;;;;;;2.28;2.08;;;14.20;64.70;;;;;;3976830;29;20112;-53
2023/04/27 08:43:01;;;;;;;6.55;2.88;;;14.30;64.50;;;;;;3966783;29;20206;-52
2023/04/27 08:45:48;;;;;;;4.18;2.65;;;14.20;64.00;;;;;;3962584;29;20074;-51
2023/04/27 08:48:29;;;;;;;3.97;2.60;;;14.20;64.00;;;;;;3961678;29;20172;-50
2023/04/27 08:51:14;;;;;;;3.30;2.25;;;14.30;64.40;;;;;;3968990;29;20058;-48
2023/04/27 08:53:57;;;;;;;6.07;2.15;;;14.30;64.10;;;;;;3976968;29;20414;-49
2023/04/27 08:56:38;;;;;;;5.25;2.30;;;14.30;63.80;;;;;;3977673;29;20069;-48
2023/04/27 09:11:41;;;;;;;3.90;2.63;;;14.30;63.90;;;;;;4752960;23;20523;-68
2023/04/27 09:14:23;;;;;;;6.13;2.63;;;14.40;64.90;;;;;;4005232;29;20113;-65
2023/04/27 09:17:04;;;;;;;4.55;2.33;;;14.40;64.10;;;;;;4018014;29;20064;-65
2023/04/27 09:19:45;;;;;;;4.57;2.63;;;14.40;63.60;;;;;;4025913;29;20051;-65
2023/04/27 09:22:26;;;;;;;3.92;2.63;;;14.50;62.40;;;;;;4049494;29;20055;-66
2023/04/27 09:25:07;;;;;;;2.92;2.70;;;14.50;61.40;;;;;;4035258;29;20524;-65
2023/04/27 09:27:49;;;;;;;3.05;2.58;;;14.50;61.00;;;;;;4018119;29;20055;-65
2023/04/27 09:30:30;;;;;;;3.17;2.88;;;14.50;60.40;;;;;;4018224;29;20053;-67
2023/04/27 09:33:13;;;;;;;3.08;2.40;;;14.50;60.70;;;;;;4018170;29;20059;-67
2023/04/27 09:35:55;;;;;;;5.50;3.25;;;14.50;60.40;;;;;;4021265;29;20059;-67
2023/04/27 09:38:36;;;;;;;2.97;2.45;;;14.60;59.90;;;;;;4032891;29;20522;-70
2023/04/27 09:41:17;;;;;;;7.35;3.00;;;14.60;60.20;;;;;;4033257;29;20056;-70
2023/04/27 09:44:00;;;;;;;5.45;3.55;;;14.60;59.20;;;;;;4021640;29;20532;-69
2023/04/27 09:46:44;;;;;;;9.38;3.20;;;14.60;58.70;;;;;;4032621;29;20056;-69
2023/04/27 09:49:26;;;;;;;5.38;4.32;;;14.60;58.70;;;;;;4032421;29;20629;-69
2023/04/27 09:52:07;;;;;;;5.40;3.40;;;14.60;58.30;;;;;;4021249;29;20048;-60
2023/04/27 09:54:48;;;;;;;4.75;2.85;;;14.60;58.90;;;;;;4033191;29;20079;-72
2023/04/27 10:06:59;;;;;;;3.33;2.97;;;14.70;57.80;;;;;;4016423;29;20153;-65
2023/04/27 10:09:41;;;;;;;3.08;2.60;;;14.70;58.40;;;;;;4017573;29;20225;-66
2023/04/27 10:12:27;;;;;;;5.50;3.30;;;14.70;59.40;;;;;;4016447;29;20499;-65
2023/04/27 10:15:16;;;;;;;4.85;3.25;;;14.70;59.40;;;;;;4017439;29;20124;-63
2023/04/27 10:17:57;;;;;;;7.22;3.30;;;14.70;58.80;;;;;;4017506;29;20060;-65
2023/04/27 10:20:39;;;;;;;4.53;3.25;;;14.80;58.60;;;;;;4027117;29;20060;-64
2023/04/27 10:23:26;;;;;;;3.65;2.70;;;14.70;58.30;;;;;;4017302;29;20435;-65
2023/04/27 10:26:07;;;;;;;7.72;3.67;;;14.70;59.20;;;;;;4015661;29;20056;-66
2023/04/27 10:28:56;;;;;;;3.60;3.20;;;14.80;59.30;;;;;;4017125;29;20061;-66
2023/04/27 10:31:44;;;;;;;3.42;3.13;;;14.70;58.80;;;;;;4017685;29;20055;-67
2023/04/27 10:34:28;;;;;;;4.60;2.97;;;14.80;59.30;;;;;;4016497;29;20051;-66
2023/04/27 10:37:11;;;;;;;4.35;3.20;;;15.00;58.80;;;;;;4017106;29;20061;-66
2023/04/27 10:39:53;;;;;;;5.07;3.35;;;15.40;59.80;;;;;;4016179;29;20060;-66
2023/04/27 10:42:34;;;;;;;5.03;3.72;;;15.90;58.10;;;;;;4016050;29;20197;-67
2023/04/27 10:45:26;;;;;;;6.60;3.80;;;16.40;56.70;;;;;;4001199;29;20056;-64
2023/04/27 10:48:13;;;;;;;6.38;3.50;;;16.90;55.90;;;;;;4001211;29;20157;-64
2023/04/27 10:50:54;;;;;;;4.57;3.60;;;17.30;53.90;;;;;;4001116;29;20065;-64
2023/04/27 10:53:35;;;;;;;7.00;3.57;;;17.60;53.30;;;;;;4009404;29;20056;-64
2023/04/27 10:56:19;;;;;;;8.68;4.30;;;17.80;52.80;;;;;;4016920;29;20509;-64
2023/04/27 10:59:03;;;;;;;5.50;3.60;;;17.90;50.50;;;;;;4017085;29;20059;-64
2023/04/27 11:01:50;;;;;;;6.20;4.10;;;17.90;51.60;;;;;;4017130;29;20056;-64
2023/04/27 11:04:41;;;;;;;7.60;4.18;;;17.80;51.00;;;;;;4016406;29;20067;-64
2023/04/27 11:07:26;;;;;;;5.28;3.90;;;17.70;51.50;;;;;;4016719;29;20124;-64
2023/04/27 11:10:09;;;;;;;6.28;3.88;;;17.70;53.00;;;;;;4016504;29;20053;-67
2023/04/27 11:12:51;;;;;;;7.90;4.20;;;17.60;53.00;;;;;;4004405;29;20565;-64
2023/04/27 11:15:41;;;;;;;6.13;3.78;;;17.50;53.40;;;;;;4016654;29;20160;-65
2023/04/27 11:18:23;;;;;;;4.47;3.67;;;17.60;52.20;;;;;;4001881;29;20406;-64
2023/04/27 11:21:09;;;;;;;6.40;4.32;;;17.70;53.50;;;;;;4001714;29;20064;-64
2023/04/27 11:23:49;;;;;;;5.97;3.70;;;17.70;53.30;;;;;;4002493;29;20124;-64
2023/04/27 11:26:30;;;;;;;6.32;4.22;;;17.80;52.70;;;;;;4010080;29;20055;-64
2023/04/27 13:20:29;;;;;;;6.80;4.63;;;17.90;55.80;;;;;;4578255;23;20044;-77
2023/04/27 13:23:10;;;;;;;7.38;3.80;;;17.80;55.40;;;;;;4039854;29;20064;-77
2023/04/27 13:25:51;;;;;;;5.20;4.55;;;17.80;55.10;;;;;;4012774;29;20060;-78
2023/04/27 13:28:32;;;;;;;5.43;4.30;;;17.60;55.10;;;;;;4038563;29;20495;-79
2023/04/27 13:31:13;;;;;;;5.13;4.10;;;17.60;56.00;;;;;;4027004;29;20076;-79
2023/04/27 13:33:54;;;;;;;5.40;4.70;;;17.50;56.00;;;;;;4013136;29;20076;-80
2023/04/27 13:36:37;;;;;;;6.55;4.40;;;17.40;56.00;;;;;;4039320;29;20064;-80
2023/04/27 13:39:17;;;;;;;8.88;5.20;;;17.30;55.90;;;;;;4013360;29;20056;-86
2023/04/27 13:41:59;;;;;;;;;;;17.30;56.50;;;;;;4004992;29;20064;-89
2023/04/27 13:44:40;;;;;;;5.88;4.03;;;17.20;57.10;;;;;;4025155;29;20492;-86
2023/04/27 13:47:21;;;;;;;7.45;4.88;;;17.10;56.90;;;;;;4013359;29;20107;-85
2023/04/27 13:50:05;;;;;;;5.18;4.30;;;17.10;56.70;;;;;;4013299;29;20052;-83
2023/04/27 13:52:47;;;;;;;5.78;4.40;;;17.00;56.70;;;;;;4025410;29;20072;-84
2023/04/27 13:55:28;;;;;;;6.95;4.60;;;16.90;56.80;;;;;;4026302;29;20060;-84
2023/04/27 13:58:09;;;;;;;;;;;16.90;56.90;;;;;;4028240;29;20072;-84
2023/04/27 14:00:51;;;;;;;4.82;4.43;;;16.80;56.60;;;;;;4030520;29;20478;-85
2023/04/27 14:03:33;;;;;;;6.22;4.53;;;16.80;57.00;;;;;;4030440;29;20064;-85
2023/04/27 14:06:15;;;;;;;6.38;4.50;;;16.90;56.30;;;;;;4018398;29;20144;-86
2023/04/27 14:08:57;;;;;;;5.40;3.92;;;17.00;56.20;;;;;;4028582;29;20056;-85
2023/04/27 14:11:38;;;;;;;5.90;4.10;;;17.10;55.80;;;;;;4017386;29;20069;-81
2023/04/27 14:14:34;;;;;;;6.47;4.28;;;17.10;56.10;;;;;;4017638;29;20064;-81
2023/04/27 14:17:15;;;;;;;8.70;4.63;;;17.10;55.70;;;;;;4017703;29;20059;-82
2023/04/27 14:19:56;;;;;;;6.95;4.30;;;17.10;56.30;;;;;;4040411;29;20108;-86
2023/04/27 14:22:37;;;;;;;5.23;4.53;;;17.10;56.20;;;;;;4017312;29;20060;-84
2023/04/27 14:25:19;;;;;;;5.97;4.20;;;17.10;56.10;;;;;;4014327;29;20785;-87
2023/04/27 14:28:01;;;;;;;7.03;4.10;;;17.00;56.50;;;;;;4014574;29;20060;-85
2023/04/27 14:30:42;;;;;;;;;;;17.00;57.10;;;;;;4014172;29;20512;-84
2023/04/27 14:33:23;;;;;;;7.25;3.70;;;16.90;57.30;;;;;;4026283;29;19956;-83
2023/04/27 14:36:04;;;;;;;7.60;4.57;;;16.80;57.00;;;;;;4014296;29;20068;-83
2023/04/27 14:38:46;;;;;;;5.32;3.85;;;16.80;56.70;;;;;;4002884;29;20135;-83
2023/04/27 14:41:28;;;;;;;4.65;3.70;;;16.90;57.20;;;;;;4013348;29;20515;-84
2023/04/27 14:44:09;;;;;;;4.50;4.10;;;16.90;56.90;;;;;;4013189;29;20525;-88
2023/04/27 14:46:50;;;;;;;5.75;4.18;;;16.90;57.20;;;;;;4003807;29;20175;-87
2023/04/27 14:49:31;;;;;;;7.30;4.75;;;17.00;56.70;;;;;;4003093;29;20724;-87
2023/04/27 14:52:13;;;;;;;6.15;4.63;;;17.00;56.10;;;;;;4002853;29;20060;-84
2023/04/27 14:54:54;;;;;;;6.60;4.85;;;17.00;56.20;;;;;;4001376;29;20541;-83
2023/04/27 14:57:37;;;;;;;4.60;4.20;;;16.90;56.50;;;;;;4035707;29;20112;-81
2023/04/27 15:00:18;;;;;;;5.18;4.45;;;16.90;56.70;;;;;;4037867;29;20059;-74
2023/04/27 15:03:00;;;;;;;15.75;9.77;;;16.90;57.90;;;;;;4037454;29;20069;-78
2023/04/27 15:05:41;;;;;;;6.82;5.00;;;16.90;57.30;;;;;;4015745;29;20068;-81
2023/04/27 15:08:22;;;;;;;7.63;4.78;;;16.90;58.60;;;;;;4037664;29;20565;-81
2023/04/27 15:11:03;;;;;;;5.88;4.20;;;17.00;59.60;;;;;;4026060;29;20516;-80
2023/04/27 15:13:45;;;;;;;7.75;4.65;;;17.00;60.30;;;;;;4037369;29;20213;-78
2023/04/27 15:16:26;;;;;;;6.85;5.07;;;17.10;60.00;;;;;;4037621;29;20071;-77
2023/04/27 15:19:07;;;;;;;7.05;4.38;;;17.10;59.60;;;;;;4025935;29;20061;-77
2023/04/27 15:21:48;;;;;;;5.38;4.05;;;17.20;61.90;;;;;;4037305;29;20468;-76
2023/04/27 15:24:29;;;;;;;;;;;17.30;63.50;;;;;;4027231;29;20051;-83
2023/04/27 15:27:10;;;;;;;8.30;5.53;;;17.30;67.00;;;;;;4027057;29;19935;-84
2023/04/27 15:29:54;;;;;;;10.60;4.32;;;17.30;66.90;;;;;;4020038;29;20109;-84
2023/04/27 15:32:35;;;;;;;5.47;3.78;;;17.30;66.20;;;;;;4037601;29;20064;-82
2023/04/27 15:35:23;;;;;;;7.85;4.53;;;17.30;65.20;;;;;;4015664;29;20650;-77
2023/04/27 15:38:04;;;;;;;6.03;4.45;;;17.20;65.40;;;;;;4025995;29;20075;-77
2023/04/27 15:40:45;;;;;;;5.93;3.88;;;17.30;66.10;;;;;;4016295;29;20499;-80
2023/04/27 15:43:26;;;;;;;9.73;4.28;;;17.20;65.30;;;;;;4016311;29;20060;-77
2023/04/27 15:46:09;;;;;;;4.88;4.30;;;17.20;65.40;;;;;;4016262;29;20064;-78
2023/04/27 15:48:50;;;;;;;8.05;4.53;;;17.20;64.40;;;;;;4015222;29;20067;-78
2023/04/27 15:51:31;;;;;;;8.27;4.10;;;17.20;62.40;;;;;;4016103;29;20056;-79
2023/04/27 15:54:11;;;;;;;4.47;3.70;;;17.40;61.70;;;;;;4026362;29;20108;-79
2023/04/27 15:56:53;;;;;;;5.60;4.07;;;17.70;63.50;;;;;;4038475;29;20124;-79
2023/04/27 15:59:35;;;;;;;5.35;3.63;;;18.10;62.60;;;;;;4024782;29;20051;-79
2023/04/27 16:02:18;;;;;;;5.07;3.90;;;18.60;61.50;;;;;;4016334;29;20059;-79
2023/04/27 16:05:00;;;;;;;6.40;3.72;;;19.00;58.30;;;;;;4022687;29;20060;-80
2023/04/27 16:07:44;;;;;;;6.15;3.97;;;19.30;58.60;;;;;;4011753;29;20515;-81
2023/04/27 16:10:26;;;;;;;6.03;4.72;;;19.50;57.60;;;;;;4026801;29;20052;-83
2023/04/27 16:13:06;;;;;;;4.15;3.35;;;19.70;54.10;;;;;;4016928;29;20097;-84
2023/04/27 16:15:47;;;;;;;5.78;4.25;;;19.80;54.70;;;;;;4028337;29;20059;-87
2023/04/27 16:18:37;;;;;;;6.97;4.40;;;19.70;56.30;;;;;;4029790;29;20124;-86
2023/04/27 16:21:20;;;;;;;4.30;3.97;;;19.60;55.60;;;;;;4022917;29;20063;-86
2023/04/27 16:24:01;;;;;;;6.10;3.97;;;19.50;56.10;;;;;;4032537;29;20064;-85
2023/04/27 16:26:42;;;;;;;4.15;3.85;;;19.40;56.70;;;;;;4050610;29;20181;-84
2023/04/27 16:29:23;;;;;;;5.38;4.03;;;19.30;56.60;;;;;;4054310;29;20068;-82
2023/04/27 16:32:05;;;;;;;5.22;4.03;;;19.20;57.30;;;;;;4043346;29;20186;-83
2023/04/27 16:34:47;;;;;;;6.13;4.30;;;19.10;57.30;;;;;;4032047;29;20059;-84
2023/04/27 16:37:32;;;;;;;5.15;4.07;;;19.00;56.70;;;;;;4032079;29;20055;-86
2023/04/27 16:40:15;;;;;;;4.25;3.95;;;18.90;56.90;;;;;;4031987;29;20188;-87
2023/04/27 16:42:59;;;;;;;5.57;4.68;;;18.80;55.70;;;;;;4032104;29;20067;-86
2023/04/27 16:45:44;;;;;;;6.30;4.57;;;18.80;56.80;;;;;;4044481;29;20169;-86
2023/04/27 16:48:26;;;;;;;5.97;3.78;;;18.70;56.70;;;;;;4055479;29;20054;-83
2023/04/27 16:51:09;;;;;;;6.72;5.10;;;18.70;56.30;;;;;;4056762;29;20135;-88
2023/04/27 16:53:50;;;;;;;7.40;5.68;;;18.60;55.50;;;;;;4034426;29;20132;-77
2023/04/27 16:56:33;;;;;;;7.43;5.90;;;18.60;56.30;;;;;;4057528;29;20060;-82
2023/04/27 16:59:14;;;;;;;11.10;6.57;;;18.60;56.50;;;;;;4057261;29;20063;-87
2023/04/27 17:01:56;;;;;;;15.68;9.40;;;18.50;56.40;;;;;;4034819;29;20060;-87